Brooten, Minnesota
Current Conditions -  °F | °C
As of 8:33 PM on Saturday 20 Dec 2014 (Local Time) from KGHW Reporting Station
Haze Haze  
Wind Chill: 18°   Ceiling: 400
Heat Index: 28°   Visibility: 5mi
Dew Point: 28°   Wind: 13mph
Humidity: 100%   Direction: 150°SSE
Pressure: 30"   Gusts: NA
Location:  45.5°N, 95.12°W
Report Text: KGHW 210233Z AUTO 15011KT 5SM BR OVC004 M02/M02 A3000 RMK AO2
Loading
Personal Weather Stations






























Interactive Weather Map New forecast layout! Learn more

10-Day Weather Forecast

Advertisements
Track Severe Weather on mobile